createdAt,value
2023-01-23T00:01:29.667Z,3.20
2023-01-23T00:03:57.607Z,3.20
2023-01-23T00:06:24.767Z,3.10
2023-01-23T00:08:51.515Z,3.20
2023-01-23T00:11:21.606Z,3.20
2023-01-23T00:13:48.647Z,3.10
2023-01-23T00:16:17.823Z,3.20
2023-01-23T00:18:44.925Z,3.20
2023-01-23T00:21:19.216Z,3.10
2023-01-23T00:23:49.759Z,3.10
2023-01-23T00:26:19.255Z,3.10
2023-01-23T00:28:47.425Z,3.10
2023-01-23T00:31:17.333Z,3.10
2023-01-23T00:33:44.650Z,3.10
2023-01-23T00:36:12.868Z,3.10
2023-01-23T00:38:40.037Z,3.10
2023-01-23T00:41:07.012Z,3.10
2023-01-23T00:43:33.920Z,3.10
2023-01-23T00:46:00.675Z,3.10
2023-01-23T00:48:27.601Z,3.10
2023-01-23T00:50:54.526Z,3.10
2023-01-23T00:53:21.747Z,3.10
2023-01-23T00:55:48.443Z,3.10
2023-01-23T00:58:15.201Z,3.10
2023-01-23T01:00:41.847Z,3.10
2023-01-23T01:03:08.913Z,3.10
2023-01-23T01:05:35.697Z,3.10
2023-01-23T01:08:02.365Z,3.10
2023-01-23T01:10:29.696Z,3.10
2023-01-23T01:12:57.681Z,3.10
2023-01-23T01:15:24.955Z,3.10
2023-01-23T01:17:54.139Z,3.10
2023-01-23T01:20:23.700Z,3.10
2023-01-23T01:22:50.941Z,3.10
2023-01-23T01:25:18.333Z,3.10
2023-01-23T01:27:45.640Z,3.10
2023-01-23T01:30:13.088Z,3.10
2023-01-23T01:32:41.653Z,3.10
2023-01-23T01:35:09.725Z,3.10
2023-01-23T01:37:37.721Z,3.10
2023-01-23T01:40:06.567Z,3.10
2023-01-23T01:42:40.176Z,3.10
2023-01-23T01:45:07.606Z,3.10
2023-01-23T01:47:34.875Z,3.10
2023-01-23T01:50:04.757Z,3.20
2023-01-23T01:52:31.478Z,3.10
2023-01-23T01:55:03.004Z,3.20
2023-01-23T01:57:31.091Z,3.20
2023-01-23T02:00:17.099Z,3.10
2023-01-23T02:02:51.263Z,3.10
2023-01-23T02:05:22.039Z,3.10
2023-01-23T02:07:54.649Z,3.10
2023-01-23T02:10:22.560Z,3.10
2023-01-23T02:12:50.766Z,3.10
2023-01-23T02:15:18.523Z,3.10
2023-01-23T02:17:47.126Z,3.10
2023-01-23T02:20:24.054Z,3.10
2023-01-23T02:22:55.876Z,3.10
2023-01-23T02:25:42.830Z,3.10
2023-01-23T02:28:14.997Z,3.10
2023-01-23T02:30:46.721Z,3.10
2023-01-23T02:33:25.218Z,3.10
2023-01-23T02:35:51.857Z,3.10
2023-01-23T02:38:22.555Z,3.10
2023-01-23T02:40:49.209Z,3.10
2023-01-23T02:43:19.891Z,3.10
2023-01-23T02:45:46.799Z,3.10
2023-01-23T02:48:13.871Z,3.10
2023-01-23T02:50:40.984Z,3.20
2023-01-23T02:53:07.638Z,3.20
2023-01-23T02:55:34.532Z,3.20
2023-01-23T02:58:20.327Z,3.20
2023-01-23T03:00:47.768Z,3.20
2023-01-23T03:03:15.984Z,3.20
2023-01-23T03:05:42.724Z,3.20
2023-01-23T03:08:09.423Z,3.20
2023-01-23T03:10:36.209Z,3.20
2023-01-23T03:13:04.616Z,3.20
2023-01-23T03:15:31.571Z,3.20
2023-01-23T03:17:58.259Z,3.20
2023-01-23T03:20:26.800Z,3.20
2023-01-23T03:22:54.072Z,3.20
2023-01-23T03:25:20.816Z,3.20
2023-01-23T03:27:47.876Z,3.10
2023-01-23T03:30:16.950Z,3.10
2023-01-23T03:32:44.820Z,3.20
2023-01-23T03:35:16.499Z,3.10
2023-01-23T03:37:44.221Z,3.10
2023-01-23T03:40:43.021Z,3.10
2023-01-23T03:43:10.778Z,3.10
2023-01-23T03:45:37.444Z,3.10
2023-01-23T03:48:04.193Z,3.10
2023-01-23T03:50:30.888Z,3.10
2023-01-23T03:52:57.536Z,3.10
2023-01-23T03:55:24.178Z,3.10
2023-01-23T03:57:50.899Z,3.10
2023-01-23T04:00:18.372Z,3.10
2023-01-23T04:02:45.206Z,3.10
2023-01-23T04:05:11.914Z,3.10
2023-01-23T04:07:38.640Z,3.10
2023-01-23T04:10:05.587Z,3.10
2023-01-23T04:12:32.244Z,3.10
2023-01-23T04:14:58.900Z,3.10
2023-01-23T04:17:25.645Z,3.10
2023-01-23T04:19:52.288Z,3.10
2023-01-23T04:22:18.936Z,3.20
2023-01-23T04:24:45.610Z,3.10
2023-01-23T04:27:12.294Z,3.10
2023-01-23T04:29:38.990Z,3.10
2023-01-23T04:32:05.724Z,3.10
2023-01-23T04:34:32.438Z,3.10
2023-01-23T04:36:59.468Z,3.10
2023-01-23T04:39:26.278Z,3.10
2023-01-23T04:41:52.941Z,3.10
2023-01-23T04:44:22.744Z,3.10
2023-01-23T04:46:53.159Z,3.10
2023-01-23T04:49:24.191Z,3.10
2023-01-23T04:51:52.193Z,3.10
2023-01-23T04:54:19.805Z,3.10
2023-01-23T04:56:46.993Z,3.10
2023-01-23T04:59:15.848Z,3.10
2023-01-23T05:01:43.206Z,3.10
2023-01-23T05:04:09.920Z,3.10
2023-01-23T05:06:36.713Z,3.10
2023-01-23T05:09:03.418Z,3.10
2023-01-23T05:11:30.533Z,3.10
2023-01-23T05:13:57.245Z,3.10
2023-01-23T05:16:23.895Z,3.10
2023-01-23T05:18:50.559Z,3.10
2023-01-23T05:21:17.216Z,3.10
2023-01-23T05:23:43.866Z,3.10
2023-01-23T05:26:10.536Z,3.10
2023-01-23T05:28:37.239Z,3.10
2023-01-23T05:31:04.127Z,3.10
2023-01-23T05:33:30.956Z,3.10
2023-01-23T05:36:01.189Z,3.10
2023-01-23T05:38:27.942Z,3.10
2023-01-23T05:40:54.597Z,3.10
2023-01-23T05:43:21.277Z,3.20
2023-01-23T05:45:47.957Z,3.10
2023-01-23T05:48:15.072Z,3.20
2023-01-23T05:50:41.809Z,3.20
2023-01-23T05:53:08.468Z,3.20
2023-01-23T05:55:37.201Z,3.20
2023-01-23T05:58:03.977Z,3.20
2023-01-23T06:00:30.645Z,3.20
2023-01-23T06:02:57.445Z,3.20
2023-01-23T06:05:24.157Z,3.20
2023-01-23T06:07:50.911Z,3.20
2023-01-23T06:10:18.090Z,3.20
2023-01-23T06:12:44.891Z,3.10
2023-01-23T06:15:12.038Z,3.20
2023-01-23T06:17:38.825Z,3.20
2023-01-23T06:20:06.058Z,3.20
2023-01-23T06:22:32.839Z,3.20
2023-01-23T06:24:59.480Z,3.20
2023-01-23T06:27:26.210Z,3.20
2023-01-23T06:29:52.935Z,3.20
2023-01-23T06:32:19.599Z,3.20
2023-01-23T06:34:46.278Z,3.20
2023-01-23T06:37:12.895Z,3.20
2023-01-23T06:39:39.645Z,3.20
2023-01-23T06:42:09.812Z,3.10
2023-01-23T06:44:37.271Z,3.10
2023-01-23T06:47:04.274Z,3.10
2023-01-23T06:49:31.056Z,3.10
2023-01-23T06:51:57.858Z,3.10
2023-01-23T06:54:24.566Z,3.20
2023-01-23T06:56:51.607Z,3.20
2023-01-23T06:59:18.264Z,3.40
2023-01-23T07:01:45.000Z,3.40
2023-01-23T07:04:11.685Z,3.40
2023-01-23T07:06:38.454Z,3.30
2023-01-23T07:09:05.118Z,3.30
2023-01-23T07:11:31.771Z,3.30
2023-01-23T07:13:58.815Z,3.20
2023-01-23T07:16:25.573Z,3.30
2023-01-23T07:18:52.406Z,3.20
2023-01-23T07:21:19.072Z,3.30
2023-01-23T07:23:45.695Z,3.20
2023-01-23T07:26:12.628Z,3.30
2023-01-23T07:28:40.003Z,3.30
2023-01-23T07:31:06.955Z,3.30
2023-01-23T07:33:33.873Z,3.30
2023-01-23T07:36:00.613Z,3.30
2023-01-23T07:38:28.005Z,3.30
2023-01-23T07:40:58.237Z,3.40
2023-01-23T07:43:25.238Z,3.40
2023-01-23T07:45:52.191Z,3.40
2023-01-23T07:48:18.866Z,3.40
2023-01-23T07:50:45.512Z,3.40
2023-01-23T07:53:12.148Z,3.40
2023-01-23T07:55:39.150Z,3.40
2023-01-23T07:58:05.856Z,3.40
2023-01-23T08:00:32.746Z,3.40
2023-01-23T08:02:59.462Z,3.40
2023-01-23T08:05:26.322Z,3.40
2023-01-23T08:08:07.372Z,3.40
2023-01-23T08:10:39.121Z,3.40
2023-01-23T08:13:05.786Z,3.40
2023-01-23T08:15:32.490Z,3.40
2023-01-23T08:17:59.122Z,3.40
2023-01-23T08:20:25.797Z,3.40
2023-01-23T08:22:52.473Z,3.50
2023-01-23T08:25:19.209Z,3.50
2023-01-23T08:27:45.915Z,3.50
2023-01-23T08:30:12.893Z,3.50
2023-01-23T08:32:39.550Z,3.50
2023-01-23T08:35:06.611Z,3.50
2023-01-23T08:37:34.409Z,3.50
2023-01-23T08:40:01.145Z,3.50
2023-01-23T08:42:28.099Z,3.50
2023-01-23T08:44:55.547Z,3.50
2023-01-23T08:47:22.283Z,3.60
2023-01-23T08:49:48.941Z,3.70
2023-01-23T08:52:15.682Z,3.70
2023-01-23T08:54:42.323Z,3.80
2023-01-23T08:57:09.065Z,3.80
2023-01-23T08:59:35.805Z,3.90
2023-01-23T09:02:02.587Z,3.90
2023-01-23T09:04:29.358Z,3.90
2023-01-23T09:06:56.006Z,3.90
2023-01-23T09:09:22.743Z,3.90
2023-01-23T09:11:49.378Z,3.90
2023-01-23T09:14:16.065Z,4.00
2023-01-23T09:16:42.872Z,4.10
2023-01-23T09:19:11.971Z,4.10
2023-01-23T09:21:39.009Z,4.10
2023-01-23T09:24:05.959Z,4.20
2023-01-23T09:26:32.652Z,4.20
2023-01-23T09:28:59.282Z,4.20
2023-01-23T09:31:26.080Z,4.30
2023-01-23T09:33:52.849Z,4.30
2023-01-23T09:36:23.403Z,4.30
2023-01-23T09:38:54.190Z,4.40
2023-01-23T09:41:25.480Z,4.40
2023-01-23T09:44:07.783Z,4.40
2023-01-23T09:46:54.837Z,4.50
2023-01-23T09:49:28.088Z,4.50
2023-01-23T09:52:11.244Z,4.60
2023-01-23T09:54:47.059Z,4.70
2023-01-23T09:57:21.060Z,4.70
2023-01-23T10:00:04.905Z,4.80
2023-01-23T10:02:31.633Z,4.80
2023-01-23T10:04:59.716Z,4.80
2023-01-23T10:07:38.199Z,4.80
2023-01-23T10:10:18.013Z,4.90
2023-01-23T10:12:54.953Z,4.90
2023-01-23T10:15:43.075Z,4.90
2023-01-23T10:18:47.447Z,4.90
2023-01-23T10:21:52.424Z,5.00
2023-01-23T10:24:40.626Z,5.00
2023-01-23T10:27:41.563Z,5.10
2023-01-23T10:30:29.727Z,5.00
2023-01-23T10:33:01.639Z,5.00
2023-01-23T10:35:50.953Z,5.10
2023-01-23T10:38:25.588Z,5.20
2023-01-23T10:41:11.147Z,5.20
2023-01-23T10:43:38.164Z,5.30
2023-01-23T10:46:21.409Z,5.30
2023-01-23T10:48:54.867Z,5.40
2023-01-23T10:51:33.280Z,5.40
2023-01-23T10:54:31.438Z,5.40
2023-01-23T10:57:18.632Z,5.40
2023-01-23T11:00:04.311Z,5.40
2023-01-23T11:02:34.539Z,5.50
2023-01-23T11:05:04.187Z,5.50
2023-01-23T11:07:36.711Z,5.50
2023-01-23T11:10:21.427Z,5.50
2023-01-23T11:12:50.732Z,5.50
2023-01-23T11:15:25.861Z,5.50
2023-01-23T11:17:55.025Z,5.60
2023-01-23T11:20:31.869Z,5.60
2023-01-23T11:23:01.441Z,5.50
2023-01-23T11:25:37.927Z,5.50
2023-01-23T11:28:18.891Z,5.50
2023-01-23T11:30:50.413Z,5.60
2023-01-23T11:33:47.781Z,5.50
2023-01-23T11:36:17.314Z,5.50
2023-01-23T11:39:04.959Z,5.50
2023-01-23T11:41:34.262Z,5.50
2023-01-23T11:44:07.867Z,5.50
2023-01-23T11:47:13.599Z,5.50
2023-01-23T11:50:10.816Z,5.50
2023-01-23T11:52:53.585Z,5.60
2023-01-23T11:55:34.963Z,5.60
2023-01-23T11:58:32.139Z,5.70
2023-01-23T12:01:19.345Z,5.70
2023-01-23T12:04:18.569Z,5.80
2023-01-23T12:07:08.578Z,5.80
2023-01-23T12:09:43.045Z,5.80
2023-01-23T12:12:26.190Z,5.90
2023-01-23T12:15:05.819Z,6.00
2023-01-23T12:17:41.327Z,6.00
2023-01-23T12:20:37.914Z,6.10
2023-01-23T12:23:27.851Z,6.10
2023-01-23T12:26:11.909Z,6.10
2023-01-23T12:29:00.287Z,6.10
2023-01-23T12:31:38.145Z,6.00
2023-01-23T12:34:36.897Z,6.00
2023-01-23T12:37:29.965Z,6.10
2023-01-23T12:40:10.058Z,6.10
2023-01-23T12:42:54.960Z,6.10
2023-01-23T12:45:27.671Z,6.10
2023-01-23T12:48:12.596Z,6.20
2023-01-23T12:51:05.769Z,6.20
2023-01-23T12:53:37.412Z,6.20
2023-01-23T12:56:27.914Z,6.20
2023-01-23T12:59:48.623Z,6.30
2023-01-23T13:02:29.997Z,6.20
2023-01-23T13:05:27.579Z,6.20
2023-01-23T13:07:57.015Z,6.20
2023-01-23T13:11:03.392Z,6.10
2023-01-23T13:13:30.649Z,6.10
2023-01-23T13:16:15.629Z,6.10
2023-01-23T13:19:12.369Z,6.20
2023-01-23T13:21:58.006Z,6.20
2023-01-23T13:24:52.065Z,6.20
2023-01-23T13:27:36.385Z,6.10
2023-01-23T13:30:05.602Z,6.10
2023-01-23T13:32:32.424Z,6.10
2023-01-23T13:34:59.148Z,6.00
2023-01-23T13:37:38.942Z,6.00
2023-01-23T13:40:11.604Z,6.00
2023-01-23T13:42:38.303Z,6.00
2023-01-23T13:45:27.627Z,6.00
2023-01-23T14:22:35.744Z,5.60
2023-01-23T14:25:02.565Z,5.60
2023-01-23T14:27:52.147Z,5.60
2023-01-23T14:30:26.938Z,5.60
2023-01-23T14:32:54.530Z,5.60
2023-01-23T14:35:27.381Z,5.60
2023-01-23T14:37:57.073Z,5.50
2023-01-23T14:40:28.070Z,5.40
2023-01-23T14:43:10.032Z,5.20
2023-01-23T14:45:37.563Z,5.10
2023-01-23T14:48:13.692Z,5.00
2023-01-23T14:50:40.514Z,4.90
2023-01-23T14:53:13.714Z,4.90
2023-01-23T14:55:42.806Z,4.90
2023-01-23T14:58:35.787Z,4.90
2023-01-23T15:01:02.912Z,4.90
2023-01-23T15:03:36.781Z,4.90
2023-01-23T15:06:08.467Z,4.80
2023-01-23T15:08:36.687Z,4.70
2023-01-23T15:11:06.418Z,4.60
2023-01-23T15:13:40.492Z,4.60
2023-01-23T15:16:15.030Z,4.70
2023-01-23T15:18:55.783Z,4.70
2023-01-23T15:21:37.482Z,4.70
2023-01-23T15:24:13.328Z,4.60
2023-01-23T15:26:56.693Z,4.70
2023-01-23T15:29:23.617Z,4.70
2023-01-23T15:31:52.533Z,4.70
2023-01-23T15:34:25.855Z,4.80
2023-01-23T15:37:05.403Z,4.80
2023-01-23T15:39:54.587Z,4.80
2023-01-23T15:42:30.288Z,4.80
2023-01-23T15:45:01.188Z,4.80
2023-01-23T15:47:32.204Z,4.80
2023-01-23T15:50:01.672Z,4.80
2023-01-23T15:52:46.600Z,4.90
2023-01-23T15:55:13.768Z,4.90
2023-01-23T15:57:41.855Z,4.90
2023-01-23T16:00:24.663Z,4.90
2023-01-23T16:02:57.490Z,4.90
2023-01-23T16:05:27.481Z,4.90
2023-01-23T16:07:55.870Z,4.90
2023-01-23T16:10:24.668Z,4.90
2023-01-23T16:12:54.056Z,4.90
2023-01-23T16:15:26.729Z,4.90
2023-01-23T16:17:54.038Z,4.90
2023-01-23T16:20:23.394Z,4.90
2023-01-23T16:22:52.632Z,4.90
2023-01-23T16:25:42.934Z,4.90
2023-01-23T16:28:15.341Z,4.90
2023-01-23T16:30:42.342Z,4.90
2023-01-23T16:33:09.474Z,4.80
2023-01-23T16:35:36.495Z,4.80
2023-01-23T16:38:03.541Z,4.80
2023-01-23T16:40:31.117Z,4.80
2023-01-23T16:42:58.316Z,4.80
2023-01-23T16:45:28.706Z,4.80
2023-01-23T16:47:55.504Z,4.80
2023-01-23T16:50:30.333Z,4.80
2023-01-23T16:53:03.068Z,4.80
2023-01-23T16:55:39.722Z,4.80
2023-01-23T16:58:08.367Z,4.80
2023-01-23T17:00:35.855Z,4.80
2023-01-23T17:03:08.041Z,4.80
2023-01-23T17:05:34.673Z,4.70
2023-01-23T17:08:02.669Z,4.80
2023-01-23T17:10:38.023Z,4.80
2023-01-23T17:13:12.125Z,4.70
2023-01-23T17:15:38.787Z,4.70
2023-01-23T17:18:05.608Z,4.70
2023-01-23T17:20:32.380Z,4.70
2023-01-23T17:22:59.138Z,4.70
2023-01-23T17:25:27.063Z,4.80
2023-01-23T17:28:11.613Z,4.70
2023-01-23T17:30:40.851Z,4.60
2023-01-23T17:33:27.466Z,4.70
2023-01-23T17:35:54.379Z,4.60
2023-01-23T17:38:23.723Z,4.70
2023-01-23T17:40:50.928Z,4.70
2023-01-23T17:43:20.051Z,4.70
2023-01-23T17:45:50.268Z,4.70
2023-01-23T17:48:22.204Z,4.70
2023-01-23T17:50:48.937Z,4.70
2023-01-23T17:53:16.921Z,4.70
2023-01-23T17:55:47.961Z,4.70
2023-01-23T17:58:15.426Z,4.70
2023-01-23T18:00:43.691Z,4.60
2023-01-23T18:03:17.119Z,4.60
2023-01-23T18:05:43.884Z,4.60
2023-01-23T18:08:14.904Z,4.50
2023-01-23T18:10:44.760Z,4.60
2023-01-23T18:13:32.854Z,4.50
2023-01-23T18:16:10.392Z,4.60
2023-01-23T18:18:39.918Z,4.60
2023-01-23T18:21:13.881Z,4.60
2023-01-23T18:23:41.057Z,4.60
2023-01-23T18:26:27.926Z,4.60
2023-01-23T18:29:09.777Z,4.60
2023-01-23T18:31:36.634Z,4.50
2023-01-23T18:34:15.161Z,4.60
2023-01-23T18:36:48.025Z,4.60
2023-01-23T18:39:34.053Z,4.60
2023-01-23T18:42:15.507Z,4.60
2023-01-23T18:45:09.621Z,4.60
2023-01-23T18:47:36.683Z,4.50
2023-01-23T18:50:03.890Z,4.50
2023-01-23T18:52:54.879Z,4.50
2023-01-23T18:55:32.618Z,4.60
2023-01-23T18:58:27.006Z,4.50
2023-01-23T19:01:13.449Z,4.60
2023-01-23T19:03:44.661Z,4.60
2023-01-23T19:06:34.882Z,4.50
2023-01-23T19:09:01.920Z,4.60
2023-01-23T19:11:31.811Z,4.60
2023-01-23T19:14:14.777Z,4.60
2023-01-23T19:16:49.006Z,4.50
2023-01-23T19:19:40.263Z,4.60
2023-01-23T19:22:12.257Z,4.60
2023-01-23T19:24:39.458Z,4.60
2023-01-23T19:27:25.721Z,4.60
2023-01-23T19:29:52.540Z,4.60
2023-01-23T19:32:19.622Z,4.50
2023-01-23T19:34:46.265Z,4.50
2023-01-23T19:37:13.961Z,4.50
2023-01-23T19:39:40.861Z,4.50
2023-01-23T19:42:14.355Z,4.50
2023-01-23T19:44:41.790Z,4.60
2023-01-23T19:47:08.912Z,4.60
2023-01-23T19:49:35.637Z,4.60
2023-01-23T19:52:02.305Z,4.60
2023-01-23T19:54:29.047Z,4.50
2023-01-23T19:56:55.780Z,4.50
2023-01-23T19:59:22.539Z,4.40
2023-01-23T20:01:51.042Z,4.40
2023-01-23T20:04:20.705Z,4.40
2023-01-23T20:06:53.949Z,4.50
2023-01-23T20:09:21.045Z,4.50
2023-01-23T20:11:48.433Z,4.50
2023-01-23T20:14:15.160Z,4.50
2023-01-23T20:16:43.181Z,4.50
2023-01-23T20:19:14.755Z,4.50
2023-01-23T20:21:41.964Z,4.50
2023-01-23T20:24:08.843Z,4.50
2023-01-23T20:26:36.089Z,4.50
2023-01-23T20:29:04.049Z,4.50
2023-01-23T20:31:31.079Z,4.50
2023-01-23T20:33:57.838Z,4.50
2023-01-23T20:36:24.497Z,4.50
2023-01-23T20:38:51.125Z,4.50
2023-01-23T20:41:19.549Z,4.50
2023-01-23T20:43:47.286Z,4.50
2023-01-23T20:46:16.270Z,4.50
2023-01-23T20:48:44.258Z,4.50
2023-01-23T20:51:12.444Z,4.40
2023-01-23T20:53:40.057Z,4.40
2023-01-23T20:56:12.384Z,4.40
2023-01-23T20:59:00.851Z,4.40
2023-01-23T21:01:30.749Z,4.40
2023-01-23T21:03:57.487Z,4.40
2023-01-23T21:06:24.279Z,4.40
2023-01-23T21:08:50.944Z,4.50
2023-01-23T21:11:19.704Z,4.50
2023-01-23T21:13:51.640Z,4.50
2023-01-23T21:16:20.303Z,4.50
2023-01-23T21:18:48.050Z,4.50
2023-01-23T21:21:17.500Z,4.50
2023-01-23T21:23:48.615Z,4.50
2023-01-23T21:26:17.063Z,4.50
2023-01-23T21:28:43.864Z,4.50
2023-01-23T21:31:13.501Z,4.40
2023-01-23T21:33:44.120Z,4.50
2023-01-23T21:36:13.184Z,4.40
2023-01-23T21:38:39.983Z,4.40
2023-01-23T21:41:06.928Z,4.40
2023-01-23T21:43:34.526Z,4.40
2023-01-23T21:46:01.659Z,4.40
2023-01-23T21:48:29.690Z,4.40
2023-01-23T21:51:08.215Z,4.40
2023-01-23T21:53:37.143Z,4.40
2023-01-23T21:56:04.921Z,4.40
2023-01-23T21:58:31.864Z,4.40
2023-01-23T22:01:18.878Z,4.40
2023-01-23T22:03:46.097Z,4.40
2023-01-23T22:06:16.003Z,4.40
2023-01-23T22:08:43.023Z,4.40
2023-01-23T22:11:10.569Z,4.30
2023-01-23T22:13:37.909Z,4.30
2023-01-23T22:16:05.569Z,4.20
2023-01-23T22:18:33.292Z,4.10
2023-01-23T22:21:02.572Z,4.10
2023-01-23T22:23:30.131Z,4.20
2023-01-23T22:25:59.340Z,4.20
2023-01-23T22:28:26.261Z,4.20
2023-01-23T22:30:53.253Z,4.10
2023-01-23T22:33:22.336Z,4.20
2023-01-23T22:35:49.339Z,4.20
2023-01-23T22:38:16.419Z,4.20
2023-01-23T22:40:43.285Z,4.20
2023-01-23T22:43:11.041Z,4.20
2023-01-23T22:45:37.859Z,4.20
2023-01-23T22:48:04.855Z,4.20
2023-01-23T22:50:31.534Z,4.20
2023-01-23T22:52:58.310Z,4.20
2023-01-23T22:55:24.956Z,4.20
2023-01-23T22:57:53.248Z,4.20
2023-01-23T23:00:20.366Z,4.10
2023-01-23T23:02:47.149Z,4.10
2023-01-23T23:05:14.120Z,4.10
2023-01-23T23:07:40.808Z,4.20
2023-01-23T23:10:09.489Z,4.10
2023-01-23T23:12:36.243Z,4.10
2023-01-23T23:15:03.254Z,4.10
2023-01-23T23:17:30.373Z,4.10
2023-01-23T23:19:57.185Z,4.10
2023-01-23T23:22:23.918Z,4.10
2023-01-23T23:24:50.640Z,4.20
2023-01-23T23:27:17.584Z,4.20
2023-01-23T23:29:44.232Z,4.20
2023-01-23T23:32:10.964Z,4.20
2023-01-23T23:34:37.705Z,4.20
2023-01-23T23:37:04.532Z,4.20
2023-01-23T23:39:31.200Z,4.20
2023-01-23T23:41:58.657Z,4.20
2023-01-23T23:44:25.423Z,4.10
2023-01-23T23:46:52.179Z,4.10
2023-01-23T23:49:18.872Z,4.10
2023-01-23T23:51:45.655Z,4.10
2023-01-23T23:54:12.357Z,4.10
2023-01-23T23:56:39.312Z,4.10
2023-01-23T23:59:06.066Z,4.10
